Terminal Aerodrome Forecast
Issued by NWS

Current Version | Previous Version | Graphics & Text | Print | Product List | Glossary On
Versions: 1 2 3 4 5 6 7 8 9 10 11 12 13 14 15 16 17 18 19 20 21 22 23 24 25
000
FTUS41 KRLX 131700
TAFCKB
TAF
KCKB 131729Z 1318/1418 23015G25KT P6SM SCT250
     FM140100 22010G18KT P6SM SCT250
     FM140300 20008KT P6SM SCT250
     FM141500 19013G23KT P6SM BKN250=

USA.gov is the U.S. government's official web portal to all federal, state and local government web resources and services.